Tasman — ZDKI2 — position and weather

sailwx.info

Track history (hours):
 
Tides and Currents Weather Stations Pressure Air Temp Water Temp Dewpoint Dewpoint Depression Visibility Wind Speed Wind Dir Waves Ship Positions

Tasman

Last reported at 2015-Mar-04 22:31 UTC. Time now 2015-Mar-05 04:07 UTC.
Position S 24°06' W 046°17'.

Length 90 m; draft 4 m.

Type: Ship. MMSI: 23617000.

Date/timePositionNaut miles runAvg speedWind from/ knotsBaromVisibWave heightAir tempDewpointWater temp
2015-Mar-04 22:31S 24°06' W 046°17'7 7.4
2015-Mar-04 21:33S 23°60' W 046°19'4 0.6
2015-Mar-04 14:15S 23°56' W 046°20'0 0.0
2015-Mar-04 08:19S 23°56' W 046°20'0 0.0
2015-Mar-04 02:04S 23°56' W 046°20'0 0.0
2015-Mar-04 01:04S 23°56' W 046°20'0 0.0
2015-Mar-03 13:11S 23°56' W 046°20'0 0.0
2015-Mar-03 10:33S 23°56' W 046°20'0 0.0
2015-Mar-03 09:21S 23°56' W 046°20'0 0.0
2015-Mar-03 08:27S 23°56' W 046°20'0 0.0
2015-Mar-03 07:08S 23°56' W 046°20'0 0.0
2015-Mar-03 06:32S 23°56' W 046°20'0 0.0
2015-Mar-03 05:31S 23°56' W 046°20'0 0.0
2015-Mar-03 04:19S 23°56' W 046°20'0 0.0
2015-Mar-03 01:05S 23°56' W 046°20'0 0.4
2015-Mar-03 00:29S 23°55' W 046°21'0 0.0
2015-Mar-02 22:28S 23°55' W 046°21'0 0.0
2015-Mar-02 20:27S 23°55' W 046°21'11 0.5
2015-Mar-01 23:26S 24°06' W 046°20'2 2.3
2015-Mar-01 22:33S 24°04' W 046°22'6 5.9
2015-Mar-01 21:28S 24°06' W 046°15'  
Track history (hours):
 
Tides and Currents Weather Stations Pressure Air Temp Water Temp Dewpoint Dewpoint Depression Visibility Wind Speed Wind Dir Waves Ship Positions

Tasman

Last reported at 2015-Mar-04 22:31 UTC. Time now 2015-Mar-05 04:07 UTC.
Position S 24°06' W 046°17'.

Length 90 m; draft 4 m.

Type: Ship. MMSI: 23617000.

Date/timePositionNaut miles runAvg speedWind from/ knotsBaromVisibWave heightAir tempDewpointWater temp
2015-Mar-04 22:31S 24°06' W 046°17'7 7.4
2015-Mar-04 21:33S 23°60' W 046°19'4 0.6
2015-Mar-04 14:15S 23°56' W 046°20'0 0.0
2015-Mar-04 08:19S 23°56' W 046°20'0 0.0
2015-Mar-04 02:04S 23°56' W 046°20'0 0.0
2015-Mar-04 01:04S 23°56' W 046°20'0 0.0
2015-Mar-03 13:11S 23°56' W 046°20'0 0.0
2015-Mar-03 10:33S 23°56' W 046°20'0 0.0
2015-Mar-03 09:21S 23°56' W 046°20'0 0.0
2015-Mar-03 08:27S 23°56' W 046°20'0 0.0
2015-Mar-03 07:08S 23°56' W 046°20'0 0.0
2015-Mar-03 06:32S 23°56' W 046°20'0 0.0
2015-Mar-03 05:31S 23°56' W 046°20'0 0.0
2015-Mar-03 04:19S 23°56' W 046°20'0 0.0
2015-Mar-03 01:05S 23°56' W 046°20'0 0.4
2015-Mar-03 00:29S 23°55' W 046°21'0 0.0
2015-Mar-02 22:28S 23°55' W 046°21'0 0.0
2015-Mar-02 20:27S 23°55' W 046°21'11 0.5
2015-Mar-01 23:26S 24°06' W 046°20'2 2.3
2015-Mar-01 22:33S 24°04' W 046°22'6 5.9
2015-Mar-01 21:28S 24°06' W 046°15'  

Dump ship's entire track history